Main page
METAR-TAF:

METAR-TAF

Airports :

Ontario Municipal Airport

Ontario, Oregon, United States

latitude: 44-01-10N, longitude: 117-00-35W, elevation: 2188 ft

Current weather observation

The report was made 30 minutes ago, at 21:53 UTC
Wind 5 mph from the Southeast
Temperature 82°F
Humidity 17%
Pressure 29.97 in. Hg
Visibility: 10 miles
Clear sky

METAR: KONO 192153Z AUTO 14004KT 10SM CLR 28/01 A2997 RMK AO2 SLP142 T02780011

Time: 16:23 (22:23 UTC)

Forecast

The report was made 4 hours and 55 minutes ago, at 17:28 UTC
Forecast valid from 19 at 18 UTC to 20 at 18 UTC
Wind 6 mph from variable directions
Visibility: 6 miles
Clear sky

TAF: KONO 191728Z 1918/2018 VRB05KT P6SM SKC

Weather observations and forecasts of more than 4000 airports (METAR and TAF reports).

The available stations are represented by yellow and red dots on the map.

Hover mouse over dot to see the name of the station.

Then click to see weather observations and forecasts.

To change the map : click on the green buttons with a black cross to zoom in, on the green button with a dash to zoom out, or on the green arrows for adjacent maps.


METAR-TAF: